Time;durP1;ratioP1;P1;durP2;ratioP2;P2;SDS_P1;SDS_P2;PMS_P1;PMS_P2;Temp;Humidity;BMP_temperature;BMP_pressure;BME280_temperature;BME280_humidity;BME280_pressure;Samples;Min_cycle;Max_cycle;Signal;HPM_P1;HPM_P2
2022/07/19 00:02:14;;;;;;;5.95;4.45;;;;;;;16.72;95.61;98065.66;5151549;27;20027;-77
2022/07/19 00:04:39;;;;;;;9.70;4.78;;;;;;;16.83;95.01;98081.03;5134340;27;20091;-77
2022/07/19 00:07:05;;;;;;;7.50;4.90;;;;;;;16.64;96.24;98068.13;5117183;27;20068;-77
2022/07/19 00:09:30;;;;;;;9.70;4.22;;;;;;;16.56;97.23;98071.41;5116904;27;20050;-77
2022/07/19 00:11:56;;;;;;;7.90;4.80;;;;;;;16.58;97.67;98069.44;5133879;27;20521;-76
2022/07/19 00:14:22;;;;;;;7.35;4.28;;;;;;;16.59;97.62;98070.28;5116763;27;20030;-76
2022/07/19 00:16:48;;;;;;;4.85;4.15;;;;;;;16.54;96.44;98072.47;5116823;27;20498;-77
2022/07/19 00:19:13;;;;;;;4.78;3.70;;;;;;;16.34;96.02;98065.03;5133896;27;20099;-77
2022/07/19 00:21:39;;;;;;;7.30;3.58;;;;;;;16.20;95.92;98071.50;5116623;27;20023;-77
2022/07/19 00:24:05;;;;;;;8.80;4.07;;;;;;;16.15;95.53;98073.69;5134072;27;20027;-77
2022/07/19 00:26:30;;;;;;;7.47;3.95;;;;;;;16.14;96.68;98077.38;5116233;27;20474;-77
2022/07/19 00:28:56;;;;;;;5.25;4.35;;;;;;;16.06;97.13;98079.75;5116621;27;20019;-77
2022/07/19 00:31:23;;;;;;;4.68;4.10;;;;;;;16.00;98.42;98077.53;5116220;27;20041;-76
2022/07/19 00:33:49;;;;;;;6.85;4.57;;;;;;;16.00;98.53;98082.94;5116622;27;20489;-76
2022/07/19 00:36:15;;;;;;;6.72;4.15;;;;;;;16.00;98.47;98073.00;5116489;27;20027;-76
2022/07/19 00:38:41;;;;;;;5.50;3.92;;;;;;;15.86;99.19;98051.59;5116285;27;20023;-76
2022/07/19 00:41:06;;;;;;;7.90;4.05;;;;;;;16.08;98.26;98058.94;5116661;27;20065;-76
2022/07/19 00:43:32;;;;;;;7.07;4.20;;;;;;;16.14;97.98;98063.88;5116199;27;20163;-77
2022/07/19 00:45:57;;;;;;;5.90;3.95;;;;;;;16.19;97.32;98064.38;5133685;27;20027;-77
2022/07/19 00:48:23;;;;;;;9.38;3.78;;;;;;;16.08;97.83;98061.63;5116172;27;20110;-77
2022/07/19 00:50:49;;;;;;;5.45;3.80;;;;;;;16.11;97.04;98042.50;5133306;27;20028;-77
2022/07/19 00:53:15;;;;;;;6.18;4.38;;;;;;;16.06;97.59;98044.69;5116379;27;20030;-77
2022/07/19 00:55:41;;;;;;;7.03;4.20;;;;;;;16.18;98.43;98068.06;5115886;27;20022;-76
2022/07/19 00:58:08;;;;;;;9.52;4.10;;;;;;;16.15;98.92;98057.50;5133451;27;20046;-77
2022/07/19 01:00:34;;;;;;;7.88;4.30;;;;;;;16.24;99.05;98056.81;5122986;27;20026;-77
2022/07/19 01:03:01;;;;;;;7.95;4.28;;;;;;;16.15;98.82;98050.25;5115959;27;20035;-77
2022/07/19 01:05:26;;;;;;;5.70;4.47;;;;;;;16.24;99.28;98062.19;5132990;27;20466;-77
2022/07/19 01:07:52;;;;;;;14.82;4.38;;;;;;;16.12;99.96;98057.72;5107369;27;20030;-77
2022/07/19 01:10:18;;;;;;;8.45;4.43;;;;;;;16.19;100.00;98067.06;5115038;27;20076;-76
2022/07/19 01:12:46;;;;;;;10.75;5.10;;;;;;;16.02;100.00;98054.88;5115807;27;20035;-76
2022/07/19 01:15:17;;;;;;;10.27;5.25;;;;;;;15.99;100.00;98059.63;5115711;27;20479;-77
2022/07/19 01:17:43;;;;;;;9.43;5.32;;;;;;;15.85;100.00;98062.50;5115619;27;20042;-77
2022/07/19 01:20:09;;;;;;;16.67;5.40;;;;;;;15.52;100.00;98049.69;5114021;27;20470;-77
2022/07/19 01:22:35;;;;;;;7.30;5.30;;;;;;;15.55;100.00;98060.25;5115329;27;20035;-77
2022/07/19 01:25:01;;;;;;;15.93;5.60;;;;;;;15.46;100.00;98042.88;5115505;27;20037;-77
2022/07/19 01:27:26;;;;;;;5.18;4.47;;;;;;;15.48;100.00;98051.75;5115628;27;20118;-77
2022/07/19 01:29:52;;;;;;;5.80;4.30;;;;;;;15.44;100.00;98057.47;5132444;27;20027;-78
2022/07/19 01:32:17;;;;;;;5.70;4.00;;;;;;;15.40;100.00;98066.75;5132391;27;20130;-77
2022/07/19 01:34:43;;;;;;;13.43;4.90;;;;;;;15.37;100.00;98065.13;5115379;27;20031;-75
2022/07/19 01:37:09;;;;;;;5.97;4.43;;;;;;;15.33;100.00;98060.06;5115261;27;20049;-75
2022/07/19 01:39:34;;;;;;;6.15;4.38;;;;;;;15.23;100.00;98051.78;5115080;27;20043;-75
2022/07/19 01:42:00;;;;;;;5.95;4.40;;;;;;;15.22;100.00;98057.28;5115283;27;20049;-76
2022/07/19 01:44:25;;;;;;;6.05;4.47;;;;;;;15.25;100.00;98063.34;5115067;27;20027;-76
2022/07/19 01:46:51;;;;;;;6.88;4.30;;;;;;;15.30;100.00;98061.16;5133484;27;20030;-77
2022/07/19 01:49:17;;;;;;;8.32;5.18;;;;;;;15.31;100.00;98065.56;5114330;27;20490;-77
2022/07/19 01:51:42;;;;;;;7.95;4.63;;;;;;;15.27;100.00;98061.38;5114950;27;20042;-77
2022/07/19 01:54:08;;;;;;;8.88;5.18;;;;;;;15.24;100.00;98067.00;5114951;27;20034;-77
2022/07/19 01:56:33;;;;;;;6.95;4.75;;;;;;;15.26;100.00;98054.25;5132080;27;20023;-77
2022/07/19 01:58:59;;;;;;;7.25;4.68;;;;;;;15.19;100.00;98055.69;5114722;27;20106;-77
2022/07/19 02:01:24;;;;;;;5.75;4.60;;;;;;;15.15;100.00;98067.66;5131894;27;20137;-76
2022/07/19 02:03:50;;;;;;;5.70;4.68;;;;;;;15.05;100.00;98056.66;5131615;27;20023;-77
2022/07/19 02:06:15;;;;;;;8.45;4.75;;;;;;;15.01;100.00;98054.31;5114631;27;20042;-77
2022/07/19 02:08:41;;;;;;;8.05;4.72;;;;;;;14.96;100.00;98062.72;5114402;27;20406;-77
2022/07/19 02:13:51;;;;;;;6.25;4.55;;;;;;;14.69;100.00;98063.81;5131951;27;20056;-76
2022/07/19 02:16:17;;;;;;;7.50;5.22;;;;;;;14.73;100.00;98059.94;5131863;27;20018;-77
2022/07/19 02:18:43;;;;;;;6.75;4.68;;;;;;;14.86;100.00;98064.34;5114494;27;20110;-76
2022/07/19 02:21:08;;;;;;;10.35;4.90;;;;;;;14.71;100.00;98060.03;5113586;27;20026;-76
2022/07/19 02:23:34;;;;;;;6.82;5.00;;;;;;;14.74;100.00;98056.25;5148857;27;20015;-77
2022/07/19 02:25:59;;;;;;;10.35;5.20;;;;;;;14.83;100.00;98063.69;5114171;27;20034;-77
2022/07/19 02:28:25;;;;;;;9.18;5.45;;;;;;;14.74;100.00;98057.13;5114372;27;20406;-77
2022/07/19 02:30:50;;;;;;;7.78;4.88;;;;;;;14.85;100.00;98069.84;5115815;27;20023;-77
2022/07/19 02:33:16;;;;;;;10.68;4.97;;;;;;;14.83;100.00;98066.38;5111511;27;20031;-77
2022/07/19 02:35:41;;;;;;;10.00;5.07;;;;;;;14.72;100.00;98066.28;5115291;27;20040;-77
2022/07/19 02:38:07;;;;;;;14.43;5.53;;;;;;;14.70;100.00;98061.03;5134445;27;20464;-77
2022/07/19 02:40:33;;;;;;;10.85;5.03;;;;;;;14.71;100.00;98069.94;5117405;27;20117;-77
2022/07/19 02:42:58;;;;;;;8.85;5.15;;;;;;;14.65;100.00;98066.72;5117278;27;20045;-76
2022/07/19 02:45:24;;;;;;;9.15;5.15;;;;;;;14.74;100.00;98062.50;5134652;27;20405;-77
2022/07/19 02:47:49;;;;;;;7.47;5.50;;;;;;;14.64;100.00;98058.75;5115796;27;20444;-76
2022/07/19 02:50:15;;;;;;;10.05;5.18;;;;;;;14.63;100.00;98082.13;5117425;27;20431;-76
2022/07/19 02:52:40;;;;;;;8.68;4.90;;;;;;;14.67;100.00;98074.69;5134494;27;20052;-76
2022/07/19 02:55:06;;;;;;;7.82;4.68;;;;;;;14.78;100.00;98085.56;5134314;27;20022;-76
2022/07/19 02:57:32;;;;;;;7.05;5.63;;;;;;;14.73;100.00;98079.66;5134317;27;20072;-76
2022/07/19 02:59:58;;;;;;;8.40;5.10;;;;;;;14.62;100.00;98077.69;5127033;27;20042;-76
2022/07/19 03:02:23;;;;;;;8.93;5.88;;;;;;;14.64;100.00;98085.69;5117142;27;20029;-77
2022/07/19 03:04:49;;;;;;;8.77;4.97;;;;;;;14.64;100.00;98081.13;5130397;27;20033;-77
2022/07/19 03:07:15;;;;;;;9.02;5.00;;;;;;;14.55;100.00;98081.78;5117257;27;20109;-76
2022/07/19 03:09:40;;;;;;;11.98;4.82;;;;;;;14.63;100.00;98087.50;5117012;27;20109;-83
2022/07/19 03:12:06;;;;;;;10.10;5.13;;;;;;;14.64;100.00;98086.53;5108604;27;20023;-76
2022/07/19 03:14:32;;;;;;;8.18;4.75;;;;;;;14.63;100.00;98087.50;5113721;27;20030;-82
2022/07/19 03:16:58;;;;;;;8.27;4.90;;;;;;;14.43;100.00;98065.59;5115892;27;20026;-81
2022/07/19 03:19:26;;;;;;;8.55;4.88;;;;;;;14.48;100.00;98056.28;5116965;27;20023;-82
2022/07/19 03:21:52;;;;;;;13.77;5.55;;;;;;;14.67;100.00;98088.16;5117442;27;20477;-83
2022/07/19 03:24:18;;;;;;;15.55;5.32;;;;;;;14.53;100.00;98075.66;5134098;27;20057;-82
2022/07/19 03:26:43;;;;;;;12.05;4.97;;;;;;;14.49;100.00;98066.06;5115621;27;20060;-82
2022/07/19 03:29:09;;;;;;;10.40;5.63;;;;;;;14.49;100.00;98068.75;5115592;27;20031;-83
2022/07/19 03:31:34;;;;;;;13.60;6.10;;;;;;;14.48;100.00;98067.03;5113200;28;20054;-82
2022/07/19 03:34:00;;;;;;;10.95;5.85;;;;;;;14.55;100.00;98084.47;5130583;28;20027;-82
2022/07/19 03:36:26;;;;;;;8.75;6.15;;;;;;;14.42;100.00;98070.16;5122411;27;20038;-83
2022/07/19 03:38:51;;;;;;;11.27;5.72;;;;;;;14.33;100.00;98068.09;5113397;28;20117;-81
2022/07/19 03:41:17;;;;;;;6.88;5.65;;;;;;;14.38;100.00;98082.09;5130386;27;20031;-82
2022/07/19 03:43:42;;;;;;;10.45;6.38;;;;;;;14.45;100.00;98078.03;5130886;28;20042;-81
2022/07/19 03:46:08;;;;;;;11.48;6.28;;;;;;;14.55;100.00;98083.63;5130321;28;20042;-83
2022/07/19 03:48:33;;;;;;;10.68;5.40;;;;;;;14.57;100.00;98079.88;5113233;28;20031;-75
2022/07/19 03:50:59;;;;;;;18.23;5.55;;;;;;;14.80;100.00;98105.16;5129960;28;20023;-78
2022/07/19 03:53:25;;;;;;;10.13;5.40;;;;;;;14.74;100.00;98088.56;5113063;28;20066;-75
2022/07/19 03:56:28;;;;;;;19.92;6.47;;;;;;;14.77;100.00;98073.06;5113325;28;20027;-75
2022/07/19 03:59:06;;;;;;;26.55;7.05;;;;;;;14.57;100.00;98052.94;5124126;28;20039;-76
2022/07/19 04:01:44;;;;;;;27.83;7.22;;;;;;;14.71;100.00;98072.63;5113249;28;20406;-77
2022/07/19 04:04:20;;;;;;;24.23;8.43;;;;;;;14.79;100.00;98087.31;5113677;28;20062;-76
2022/07/19 04:06:51;;;;;;;27.20;8.02;;;;;;;14.72;100.00;98061.75;5106546;28;20034;-77
2022/07/19 04:09:17;;;;;;;15.83;7.77;;;;;;;14.82;100.00;98056.59;5129925;28;20019;-76
2022/07/19 04:11:56;;;;;;;15.63;7.50;;;;;;;15.19;100.00;98123.06;5130744;28;20027;-76
2022/07/19 04:14:48;;;;;;;20.05;7.63;;;;;;;15.27;100.00;98128.75;5111029;28;20030;-77
2022/07/19 04:17:14;;;;;;;18.67;8.60;;;;;;;15.40;100.00;98115.25;5128671;27;20045;-77
2022/07/19 04:19:40;;;;;;;15.68;8.38;;;;;;;15.42;100.00;98118.69;5123055;28;20040;-77
2022/07/19 04:22:05;;;;;;;24.50;9.48;;;;;;;15.41;100.00;98096.25;5125253;28;20501;-76
2022/07/19 04:24:31;;;;;;;33.72;9.77;;;;;;;15.59;100.00;98103.06;5129480;28;20106;-76
2022/07/19 04:26:56;;;;;;;27.83;10.02;;;;;;;15.78;100.00;98112.50;5129351;28;20038;-76
2022/07/19 04:29:22;;;;;;;17.38;9.48;;;;;;;15.85;100.00;98116.44;5112593;28;20023;-77
2022/07/19 04:31:47;;;;;;;27.35;10.18;;;;;;;15.99;100.00;98125.28;5109254;28;20490;-76
2022/07/19 04:34:13;;;;;;;20.05;9.93;;;;;;;16.05;100.00;98132.91;5126458;28;20051;-75
2022/07/19 04:36:38;;;;;;;16.60;9.82;;;;;;;16.04;100.00;98122.22;5092136;28;20035;-75
2022/07/19 04:39:04;;;;;;;18.50;10.10;;;;;;;16.08;100.00;98119.19;5092216;28;20023;-75
2022/07/19 04:41:30;;;;;;;19.17;9.73;;;;;;;16.10;100.00;98097.47;5091409;28;20487;-76
2022/07/19 04:43:55;;;;;;;24.00;10.73;;;;;;;16.98;96.59;98093.34;5093411;28;20055;-76
2022/07/19 04:46:21;;;;;;;25.23;10.43;;;;;;;17.47;91.04;98095.69;5112707;28;20067;-76
2022/07/19 04:48:46;;;;;;;27.33;9.55;;;;;;;17.45;90.02;98090.38;5095849;28;20024;-77
2022/07/19 04:51:12;;;;;;;14.88;9.77;;;;;;;17.49;89.20;98105.41;5095600;28;20475;-77
2022/07/19 04:53:37;;;;;;;23.20;9.73;;;;;;;17.43;90.57;98111.31;5113933;28;20023;-77
2022/07/19 04:56:03;;;;;;;21.55;10.25;;;;;;;17.26;91.72;98099.13;5097522;28;20410;-77
2022/07/19 04:58:29;;;;;;;24.45;9.07;;;;;;;17.44;90.97;98107.63;5111054;28;20466;-76
2022/07/19 05:00:54;;;;;;;27.00;10.35;;;;;;;17.59;90.59;98125.34;5095593;28;20374;-76
2022/07/19 05:03:20;;;;;;;25.58;9.27;;;;;;;17.80;89.54;98114.63;5095566;28;20118;-76
2022/07/19 05:05:46;;;;;;;15.82;9.02;;;;;;;18.81;83.60;98097.00;5109157;28;20028;-76
2022/07/19 05:08:11;;;;;;;27.92;8.55;;;;;;;20.82;73.77;98094.91;5092641;28;20027;-77
2022/07/19 05:10:37;;;;;;;23.08;8.15;;;;;;;22.32;66.22;98081.97;5111672;28;20034;-77
2022/07/19 05:13:02;;;;;;;13.15;7.30;;;;;;;22.66;63.28;98100.22;5092137;28;20032;-77
2022/07/19 05:15:28;;;;;;;17.55;7.57;;;;;;;22.91;62.33;98101.28;5094604;28;20091;-77
2022/07/19 05:17:54;;;;;;;14.90;7.13;;;;;;;23.14;60.93;98097.03;5095460;28;20031;-77
2022/07/19 05:20:19;;;;;;;21.55;5.93;;;;;;;22.48;61.78;98115.72;5094829;28;20020;-78
2022/07/19 05:22:45;;;;;;;9.27;6.00;;;;;;;21.85;63.80;98119.38;5095114;28;20380;-77
2022/07/19 05:25:11;;;;;;;15.88;6.60;;;;;;;22.18;63.40;98098.84;5095129;28;20475;-77
2022/07/19 05:27:37;;;;;;;13.45;7.05;;;;;;;24.14;58.52;98097.25;5094949;28;20039;-75
2022/07/19 05:30:04;;;;;;;21.33;8.25;;;;;;;26.15;53.43;98073.47;5088172;28;20088;-77
2022/07/19 05:32:30;;;;;;;19.08;7.45;;;;;;;27.68;48.56;98084.25;5106161;28;20063;-78
2022/07/19 05:34:55;;;;;;;15.98;6.80;;;;;;;28.47;45.38;98080.66;5094874;28;20406;-78
2022/07/19 05:37:21;;;;;;;18.70;7.03;;;;;;;27.37;47.14;98084.41;5111828;28;20042;-78
2022/07/19 05:39:46;;;;;;;12.27;7.22;;;;;;;27.23;47.56;98085.19;5094665;28;20655;-78
2022/07/19 05:42:12;;;;;;;23.98;7.38;;;;;;;26.44;48.64;98093.88;5094922;28;20035;-79
2022/07/19 05:44:38;;;;;;;13.45;6.22;;;;;;;27.98;46.09;98085.94;5111624;28;20414;-77
2022/07/19 05:47:03;;;;;;;24.33;7.05;;;;;;;28.94;44.28;98072.72;5112168;28;20039;-79
2022/07/19 05:49:29;;;;;;;20.60;5.88;;;;;;;29.62;42.19;98070.31;5111841;28;20438;-79
2022/07/19 05:51:55;;;;;;;12.05;5.90;;;;;;;30.39;40.47;98080.13;5111748;28;20039;-79
2022/07/19 05:54:20;;;;;;;13.43;5.53;;;;;;;30.31;40.61;98071.97;5077711;28;20367;-79
2022/07/19 05:56:46;;;;;;;12.93;5.35;;;;;;;29.51;40.88;98064.28;5086071;28;20032;-79
2022/07/19 05:59:12;;;;;;;11.80;5.57;;;;;;;30.03;40.29;98074.81;5111737;28;20559;-79
2022/07/19 06:01:37;;;;;;;16.55;5.47;;;;;;;31.02;38.79;98069.66;5094413;28;20066;-79
2022/07/19 06:04:03;;;;;;;13.80;4.78;;;;;;;31.13;37.81;98061.56;5112457;28;20026;-79
2022/07/19 06:06:33;;;;;;;11.43;4.60;;;;;;;31.40;37.42;98065.19;5094254;28;20061;-79
2022/07/19 06:08:59;;;;;;;9.85;4.15;;;;;;;32.68;36.04;98059.72;5094171;28;20035;-80
2022/07/19 06:11:25;;;;;;;10.27;4.90;;;;;;;32.02;36.02;98066.59;5111215;28;20398;-80
2022/07/19 06:13:51;;;;;;;9.20;4.90;;;;;;;30.32;39.02;98062.63;5098487;28;20088;-79
2022/07/19 06:16:17;;;;;;;18.05;5.70;;;;;;;30.58;39.01;98064.63;5094213;28;20031;-79
2022/07/19 06:18:43;;;;;;;10.82;5.28;;;;;;;31.59;37.34;98074.56;5093568;28;20066;-80
2022/07/19 06:21:10;;;;;;;11.77;4.90;;;;;;;31.40;37.71;98067.97;5093909;28;20016;-80
2022/07/19 06:23:37;;;;;;;8.32;4.45;;;;;;;31.89;36.94;98070.25;5093823;28;20078;-79
2022/07/19 06:26:04;;;;;;;6.93;4.60;;;;;;;32.27;35.94;98048.16;5093687;28;20020;-80
2022/07/19 06:28:29;;;;;;;8.57;5.10;;;;;;;29.47;39.47;98065.75;5110887;28;20368;-80
2022/07/19 06:30:55;;;;;;;10.95;7.07;;;;;;;30.35;38.49;98067.75;5098211;27;20034;-79
2022/07/19 06:33:21;;;;;;;7.35;4.53;;;;;;;31.02;37.14;98058.59;5117528;27;20123;-79
2022/07/19 06:35:47;;;;;;;7.70;4.22;;;;;;;31.30;36.84;98063.91;5117369;27;20366;-80
2022/07/19 06:38:12;;;;;;;11.00;4.65;;;;;;;32.48;35.44;98056.19;5117383;27;20063;-80
2022/07/19 06:40:38;;;;;;;7.35;4.70;;;;;;;32.22;35.29;98045.22;5115597;27;20035;-80
2022/07/19 06:43:04;;;;;;;14.70;4.70;;;;;;;33.17;34.12;98058.13;5134269;27;20030;-80
2022/07/19 06:45:30;;;;;;;11.18;5.93;;;;;;;33.46;33.72;98054.66;5117522;27;20394;-79
2022/07/19 06:47:56;;;;;;;5.18;4.28;;;;;;;31.67;35.38;98044.75;5152760;27;20115;-80
2022/07/19 06:50:22;;;;;;;8.23;4.50;;;;;;;30.32;37.73;98053.50;5117205;27;20046;-79
2022/07/19 06:52:48;;;;;;;15.90;5.05;;;;;;;31.96;35.91;98065.50;5117144;27;20077;-79
2022/07/19 06:55:13;;;;;;;6.20;4.10;;;;;;;33.84;33.13;98056.47;5134163;27;20350;-80
2022/07/19 06:57:39;;;;;;;7.90;4.30;;;;;;;34.90;31.00;98045.72;5134173;27;20458;-80
2022/07/19 07:00:07;;;;;;;9.05;4.63;;;;;;;34.56;31.42;98045.31;5116913;27;20015;-80
2022/07/19 07:02:33;;;;;;;8.93;4.00;;;;;;;34.90;30.55;98029.00;5113812;27;20127;-79
2022/07/19 07:04:59;;;;;;;7.22;3.80;;;;;;;36.08;29.36;98043.69;5134178;27;20114;-80
2022/07/19 07:07:24;;;;;;;5.47;3.80;;;;;;;36.59;28.90;98026.09;5116570;27;20019;-80
2022/07/19 07:09:50;;;;;;;6.65;3.60;;;;;;;36.88;28.42;98037.00;5115764;27;20469;-81
2022/07/19 07:12:15;;;;;;;9.57;4.57;;;;;;;38.24;26.63;98040.38;5116710;27;20094;-80
2022/07/19 07:14:41;;;;;;;4.75;4.00;;;;;;;37.04;27.88;98032.56;5116754;27;20034;-80
2022/07/19 07:17:07;;;;;;;7.53;4.25;;;;;;;37.13;27.56;98025.44;5115100;27;20030;-80
2022/07/19 07:19:32;;;;;;;6.32;3.85;;;;;;;35.57;28.84;98034.13;5127682;27;20058;-80
2022/07/19 07:22:00;;;;;;;7.55;3.70;;;;;;;34.33;30.71;98042.44;5097055;27;20131;-79
2022/07/19 07:24:26;;;;;;;9.05;4.25;;;;;;;36.03;29.12;98036.03;5131641;27;20026;-80
2022/07/19 07:26:51;;;;;;;4.95;3.80;;;;;;;36.12;29.25;98039.31;5113949;27;20034;-79
2022/07/19 07:29:17;;;;;;;4.45;3.30;;;;;;;36.59;29.08;98029.75;5113684;27;20037;-80
2022/07/19 07:31:43;;;;;;;5.90;3.60;;;;;;;37.71;27.31;98027.84;5131050;27;20130;-80
2022/07/19 07:34:08;;;;;;;50.40;5.72;;;;;;;38.18;27.07;98025.44;5131083;27;20579;-80
2022/07/19 07:36:34;;;;;;;8.43;3.60;;;;;;;38.22;26.71;98028.56;5131122;27;20061;-80
2022/07/19 07:38:59;;;;;;;4.18;3.53;;;;;;;38.26;26.62;98010.19;5113229;27;20478;-81
2022/07/19 07:41:25;;;;;;;12.23;3.75;;;;;;;37.96;27.08;98010.66;5130642;27;20073;-81
2022/07/19 07:43:50;;;;;;;10.30;3.38;;;;;;;38.84;26.45;98010.34;5113992;27;20035;-80
2022/07/19 07:46:16;;;;;;;8.27;3.28;;;;;;;37.58;27.08;98017.03;5113438;27;20042;-80
2022/07/19 07:48:42;;;;;;;6.90;4.18;;;;;;;37.35;27.55;98006.00;5113718;27;20116;-80
2022/07/19 07:51:07;;;;;;;9.70;3.47;;;;;;;38.16;27.09;98007.25;5113636;27;20023;-79
2022/07/19 07:53:33;;;;;;;5.55;3.10;;;;;;;36.86;27.83;98007.63;5131455;27;20065;-80
2022/07/19 07:55:59;;;;;;;13.35;3.15;;;;;;;36.27;28.77;98014.56;5113875;27;20509;-79
2022/07/19 07:58:24;;;;;;;9.18;2.90;;;;;;;36.27;27.36;97989.47;5113612;27;20498;-79
2022/07/19 08:00:50;;;;;;;6.60;2.53;;;;;;;35.30;28.27;98007.81;5113838;27;20206;-79
2022/07/19 08:03:17;;;;;;;4.45;2.60;;;;;;;35.39;28.66;98009.16;5113642;27;20022;-80
2022/07/19 08:05:47;;;;;;;13.10;3.88;;;;;;;36.45;26.25;98000.44;5110579;28;20030;-78
2022/07/19 08:08:13;;;;;;;3.58;2.75;;;;;;;35.95;26.07;98000.19;5131256;27;20027;-79
2022/07/19 08:10:39;;;;;;;3.13;2.58;;;;;;;35.86;27.25;98001.66;5113482;27;20033;-80
2022/07/19 08:13:05;;;;;;;5.28;2.53;;;;;;;36.80;26.86;97992.75;5130848;27;20094;-80
2022/07/19 08:15:31;;;;;;;14.45;3.33;;;;;;;37.83;25.50;97997.00;5113398;27;20026;-81
2022/07/19 08:17:56;;;;;;;8.15;2.58;;;;;;;38.52;24.74;97984.22;5130585;27;20022;-80
2022/07/19 08:20:22;;;;;;;6.03;2.40;;;;;;;38.84;23.00;97987.13;5134083;27;20097;-80
2022/07/19 08:22:48;;;;;;;4.70;2.50;;;;;;;38.10;24.01;97980.34;5134581;27;20031;-80
2022/07/19 08:25:16;;;;;;;10.40;2.33;;;;;;;38.56;22.76;97974.22;5117445;27;20030;-80
2022/07/19 08:27:42;;;;;;;4.82;2.50;;;;;;;38.41;23.75;97982.44;5132582;27;20031;-81
2022/07/19 08:30:09;;;;;;;3.00;2.40;;;;;;;36.12;25.69;97975.22;5117107;27;20019;-81
2022/07/19 08:32:34;;;;;;;2.67;2.47;;;;;;;37.34;24.13;97970.81;5134335;27;20489;-79
2022/07/19 08:35:00;;;;;;;3.03;2.50;;;;;;;37.94;23.51;97960.56;5119994;27;20045;-79
2022/07/19 08:37:26;;;;;;;4.20;2.67;;;;;;;38.53;23.39;97971.94;5117012;27;20408;-80
2022/07/19 08:39:51;;;;;;;5.25;2.58;;;;;;;39.75;22.17;97980.34;5117012;27;20022;-79
2022/07/19 08:42:20;;;;;;;5.25;2.78;;;;;;;40.51;21.84;97977.91;5116913;27;20037;-80
2022/07/19 08:44:50;;;;;;;6.15;2.70;;;;;;;39.42;21.92;97973.09;5124711;27;20461;-83
2022/07/19 08:47:18;;;;;;;4.45;2.42;;;;;;;39.96;21.97;97965.31;5117218;27;20030;-79
2022/07/19 08:49:44;;;;;;;2.20;2.00;;;;;;;40.29;22.03;97968.84;5117070;27;20035;-80
2022/07/19 08:52:11;;;;;;;4.10;2.40;;;;;;;39.88;21.21;97964.97;5134538;27;20026;-80
2022/07/19 08:54:37;;;;;;;7.97;2.65;;;;;;;39.82;22.30;97952.91;5133967;27;20034;-79
2022/07/19 08:59:47;;;;;;;8.85;2.90;;;;;;;40.17;22.70;97946.66;5137535;27;20038;-81
2022/07/19 09:02:12;;;;;;;4.45;2.00;;;;;;;41.36;21.51;97959.53;5117683;27;20027;-80
2022/07/19 09:04:38;;;;;;;12.80;2.78;;;;;;;39.82;23.08;97961.31;5133999;27;20160;-80
2022/07/19 09:07:03;;;;;;;3.80;2.60;;;;;;;39.25;22.93;97968.75;5133791;27;20461;-80
2022/07/19 09:09:30;;;;;;;;;;;;;;;38.06;24.26;97957.66;5134592;27;20023;-79
2022/07/19 09:11:57;;;;;;;10.80;4.72;;;;;;;39.10;23.47;97963.84;5150992;27;19919;-80
2022/07/19 09:14:25;;;;;;;8.80;3.30;;;;;;;40.26;21.88;97958.19;5133722;27;20117;-80
2022/07/19 09:17:16;;;;;;;6.60;2.70;;;;;;;41.27;20.20;97944.34;5136737;27;20090;-80
2022/07/19 09:19:44;;;;;;;7.68;2.53;;;;;;;38.52;22.32;97947.03;5116943;27;20035;-79
2022/07/19 09:22:15;;;;;;;8.40;2.65;;;;;;;35.43;24.65;97940.78;5133506;27;20738;-80
2022/07/19 09:24:42;;;;;;;3.63;2.67;;;;;;;34.35;25.86;97948.56;5133614;27;20035;-79
2022/07/19 09:27:11;;;;;;;3.97;2.30;;;;;;;34.52;25.93;97944.00;5125092;27;20054;-80
2022/07/19 09:29:39;;;;;;;7.70;2.92;;;;;;;36.71;24.31;97943.22;5132439;27;20049;-79
2022/07/19 09:32:09;;;;;;;5.53;2.47;;;;;;;38.96;21.85;97937.41;5133132;27;20058;-80
2022/07/19 09:34:58;;;;;;;5.72;4.00;;;;;;;39.64;21.23;97942.13;5133307;27;20114;-81
2022/07/19 09:37:26;;;;;;;8.80;3.28;;;;;;;40.44;20.45;97932.44;5132458;27;20031;-81
2022/07/19 09:39:59;;;;;;;4.78;2.88;;;;;;;40.16;19.87;97921.69;5115701;27;20335;-80
2022/07/19 09:42:43;;;;;;;5.05;2.55;;;;;;;37.39;22.52;97918.69;5133293;27;20109;-80
2022/07/19 09:45:11;;;;;;;3.97;2.25;;;;;;;36.28;22.90;97913.97;5115880;27;20031;-80
2022/07/19 09:47:39;;;;;;;6.20;3.00;;;;;;;35.00;24.37;97920.81;5132964;27;20528;-79
2022/07/19 09:50:07;;;;;;;2.63;2.25;;;;;;;33.98;25.80;97935.81;5115524;27;20026;-79
2022/07/19 09:52:34;;;;;;;6.60;3.13;;;;;;;33.49;26.43;97923.78;5115640;27;20061;-80
2022/07/19 09:55:06;;;;;;;8.95;2.40;;;;;;;34.70;25.13;97927.28;5140528;27;20034;-80
2022/07/19 09:57:33;;;;;;;;;;;;;;;37.34;22.70;97931.75;5133333;27;20026;-81
2022/07/19 09:59:58;;;;;;;5.82;2.40;;;;;;;38.90;21.44;97933.72;5132606;27;19914;-80
2022/07/19 10:02:25;;;;;;;5.45;2.25;;;;;;;39.77;20.74;97924.88;5115640;27;20059;-80
2022/07/19 10:04:51;;;;;;;5.65;2.83;;;;;;;40.92;19.47;97920.72;5117337;27;20035;-80
2022/07/19 10:07:17;;;;;;;9.43;3.13;;;;;;;39.72;20.44;97910.81;5114964;27;20071;-80
2022/07/19 10:09:44;;;;;;;4.93;2.53;;;;;;;37.40;23.04;97912.00;5132452;27;20027;-78
2022/07/19 10:12:10;;;;;;;4.03;2.75;;;;;;;36.74;23.09;97904.50;5115003;27;20882;-79
2022/07/19 10:14:36;;;;;;;7.97;2.88;;;;;;;37.50;22.17;97899.34;5115120;27;20483;-80
2022/07/19 10:17:30;;;;;;;5.25;2.20;;;;;;;39.21;21.01;97908.75;5115283;27;20129;-80
2022/07/19 10:19:56;;;;;;;4.25;2.25;;;;;;;40.35;19.79;97904.06;5132209;27;20114;-80
2022/07/19 10:22:24;;;;;;;7.07;2.45;;;;;;;41.50;19.28;97915.69;5115362;27;20141;-80
2022/07/19 10:25:13;;;;;;;10.65;2.85;;;;;;;41.85;18.64;97901.53;5132211;27;20503;-80
2022/07/19 10:27:42;;;;;;;6.93;2.33;;;;;;;40.06;19.55;97900.03;5129114;27;20572;-80
2022/07/19 10:30:07;;;;;;;9.18;2.38;;;;;;;38.11;21.76;97895.38;5114548;27;20035;-80
2022/07/19 10:32:33;;;;;;;8.90;2.47;;;;;;;36.12;23.15;97894.38;5132110;27;20074;-80
2022/07/19 10:35:18;;;;;;;7.15;2.30;;;;;;;35.38;24.03;97896.13;5131885;27;20034;-80
2022/07/19 10:37:51;;;;;;;5.97;2.22;;;;;;;36.11;23.60;97888.00;5150545;27;20406;-80
2022/07/19 10:40:36;;;;;;;4.50;1.92;;;;;;;36.87;22.81;97886.59;5131922;27;20405;-80
2022/07/19 10:43:06;;;;;;;7.03;2.35;;;;;;;38.49;21.53;97881.25;5128789;27;20419;-79
2022/07/19 10:45:32;;;;;;;8.95;2.40;;;;;;;39.88;20.83;97881.75;5150375;27;20621;-81
2022/07/19 10:48:00;;;;;;;14.30;2.40;;;;;;;40.32;19.69;97878.53;5131730;27;20041;-79
2022/07/19 10:50:46;;;;;;;3.13;2.05;;;;;;;41.37;19.28;97876.94;5134613;27;20037;-79
2022/07/19 10:53:40;;;;;;;2.35;2.15;;;;;;;42.84;18.58;97863.00;5130138;27;20026;-79
2022/07/19 10:56:15;;;;;;;;;;;;;;;43.91;17.50;97872.91;5129679;27;20383;-80
2022/07/19 10:58:51;;;;;;;12.15;2.45;;;;;;;42.57;18.36;97871.91;5129977;27;19911;-89
2022/07/19 11:01:21;;;;;;;7.72;3.85;;;;;;;40.38;19.96;97869.84;5145687;27;20026;-87
2022/07/19 11:03:48;;;;;;;4.18;2.30;;;;;;;37.71;20.79;97849.06;5120286;27;20439;-87
2022/07/19 11:06:26;;;;;;;4.95;2.08;;;;;;;36.99;22.46;97858.63;5136132;27;20099;-87
2022/07/19 11:08:56;;;;;;;6.97;5.28;;;;;;;35.58;24.08;97860.44;5137144;27;20493;-87
2022/07/19 11:11:25;;;;;;;5.50;2.17;;;;;;;34.31;24.52;97863.97;5140276;27;20513;-88
2022/07/19 11:13:57;;;;;;;3.17;2.00;;;;;;;35.38;24.02;97851.59;5123678;27;20473;-87
2022/07/19 11:16:27;;;;;;;5.28;1.95;;;;;;;36.48;23.52;97854.09;5122135;27;20043;-86
2022/07/19 11:19:05;;;;;;;4.47;2.05;;;;;;;35.84;23.53;97845.91;5117975;27;20521;-80
2022/07/19 11:21:36;;;;;;;5.70;2.22;;;;;;;35.36;23.88;97859.34;5131531;27;20018;-81
2022/07/19 11:24:03;;;;;;;8.43;2.22;;;;;;;34.88;24.57;97855.97;5131739;27;20840;-82
2022/07/19 11:26:35;;;;;;;7.50;1.92;;;;;;;34.71;24.81;97851.13;5131374;27;20463;-81
2022/07/19 11:29:01;;;;;;;17.58;2.17;;;;;;;35.90;23.77;97835.75;5131493;27;20022;-81
2022/07/19 11:31:26;;;;;;;15.40;2.53;;;;;;;36.51;22.99;97834.06;5127222;27;20491;-82
2022/07/19 11:33:57;;;;;;;11.25;2.65;;;;;;;35.16;23.97;97845.00;5107433;28;20055;-81
2022/07/19 11:36:23;;;;;;;13.05;2.13;;;;;;;35.50;23.54;97832.91;5124339;28;20023;-81